Vlagtwedde, Netherlands
Current Conditions -  °F | °C
As of 1:25 PM on Thursday 29 Jan 2015 (Local Time) from EHGG Reporting Station
Light Rain Light Rain  
Wind Chill: 27°   Ceiling: 1500
Heat Index: 37°   Visibility: 6mi
Dew Point: 34°   Wind: 18mph
Humidity: 87%   Direction: 220°SW
Pressure: 28.94"   Gusts: NA
Location:  53.03°N, 7.11°E
Report Text: EHGG 291225Z AUTO 22016KT 9999 -RADZ FEW009 BKN015CB BKN02203/01 Q0980 REDZ TEMPO 23016G26KT 6000 -SHRAGS
Loading
Personal Weather Stations






























Interactive Weather Map New forecast layout! Learn more

10-Day Weather Forecast

Advertisements
Track Severe Weather on mobile